Latest Weather Observations for Tunnack

IDT60801

Issued at 4:02 pm EST Wednesday 31 August 2016 (issued every 30 minutes, with the page automatically refreshed every 10 minutes)

About weather observations | Map of weather stations | Latest weather observations for TAS | Other Formats
Station Details ID: 094195 Name: TUNNACK FIRE STATION Lat: -42.45 Lon: 147.46 Height: 461.5 m
Data from the previous 72 hours. | See also: Recent months at Tunnack
Date/Time
EST
Temp
°C
App
Temp
°C
Dew
Point
°C
Rel
Hum
%
Delta-T
°C
Wind Press
QNH
hPa
Press
MSL
hPa
Rain since
9am
mm
Dir  Spd
km/h
Gust
km/h
Spd
kts
Gust
kts
31/03:30pm 13.0 10.4 9.3 78 1.9 N 13 17 7 9 1006.3 1007.1 0.4
31/03:00pm 13.2 11.2 8.5 73 2.4 NNW 9 13 5 7 1006.3 1007.1 0.4
31/02:30pm 12.8 9.6 9.8 82 1.6 N 17 22 9 12 1006.5 1007.3 0.4
31/02:00pm 12.4 9.2 10.1 86 1.2 N 17 20 9 11 1006.7 1007.5 0.4
31/01:30pm 12.6 8.9 9.4 81 1.7 N 19 24 10 13 1007.1 1008.0 0.0
31/01:00pm 13.5 9.9 10.5 82 1.6 N 20 26 11 14 1007.2 1008.1 0.0
31/12:30pm 13.2 9.5 9.6 79 1.9 N 19 26 10 14 1007.6 1008.5 0.0
31/12:00pm 11.9 8.2 9.5 85 1.2 N 19 24 10 13 1008.3 1009.1 0.0
31/11:30am 12.3 9.1 10.0 86 1.2 N 17 22 9 12 1008.5 1009.3 0.0
31/11:00am 11.8 8.5 9.5 86 1.2 N 17 22 9 12 1008.7 1009.6 0.0
31/10:30am 12.4 9.6 10.1 86 1.2 N 15 20 8 11 1008.9 1009.8 0.0
31/10:00am 11.2 9.3 9.1 87 1.1 N 9 17 5 9 1009.2 1010.1 0.0
31/09:30am 9.8 8.1 8.2 90 0.8 N 7 13 4 7 1009.5 1010.4 0.0
31/09:00am 9.5 7.7 8.1 91 0.7 NNW 7 15 4 8 1009.6 1010.5 1.6
31/08:30am 9.2 7.4 8.1 93 0.5 NE 7 13 4 7 1009.6 1010.5 1.6
31/08:00am 8.4 5.4 7.6 95 0.4 N 13 19 7 10 1009.7 1010.6 1.6
31/07:30am 8.2 5.1 7.1 93 0.5 N 13 17 7 9 1009.7 1010.6 1.6
31/07:00am 8.6 6.3 7.5 93 0.5 N 9 15 5 8 1009.4 1010.3 1.6
31/06:30am 8.5 5.0 7.4 93 0.5 NNW 15 22 8 12 1009.4 1010.3 1.6
31/06:00am 8.5 4.3 7.6 94 0.4 N 19 24 10 13 1009.3 1010.2 1.6
31/05:30am 8.6 4.2 7.5 93 0.5 NNW 20 30 11 16 1009.6 1010.5 1.6
31/05:00am 8.7 4.0 7.6 93 0.5 N 22 44 12 24 1009.8 1010.7 1.6
31/04:30am 8.7 4.4 7.8 94 0.4 N 20 32 11 17 1010.0 1010.9 1.6
31/04:00am 8.7 4.0 7.6 93 0.5 N 22 37 12 20 1010.0 1010.9 1.6
31/03:30am 8.5 4.1 7.6 94 0.4 NNW 20 28 11 15 1010.3 1011.1 1.6
31/03:00am 8.4 4.0 7.6 95 0.4 N 20 28 11 15 1010.5 1011.4 1.4
31/02:30am 8.1 3.9 7.5 96 0.3 N 19 28 10 15 1010.7 1011.6 1.4
31/02:00am 8.2 2.7 7.4 95 0.4 N 26 33 14 18 1011.2 1012.1 1.4
31/01:30am 8.5 3.7 7.4 93 0.5 N 22 32 12 17 1012.0 1012.9 1.4
31/01:00am 8.5 3.3 7.4 93 0.5 N 24 35 13 19 1012.7 1013.6 1.4
31/12:30am 8.8 6.1 7.4 91 0.7 NNE 11 17 6 9 1012.8 1013.7 1.4
31/12:00am 8.8 5.3 7.3 90 0.7 N 15 24 8 13 1012.8 1013.7 1.4
 
Date/Time
EST
Temp
°C
App
Temp
°C
Dew
Point
°C
Rel
Hum
%
Delta-T
°C
Wind Press
QNH
hPa
Press
MSL
hPa
Rain since
9am
mm
Dir  Spd
km/h
Gust
km/h
Spd
kts
Gust
kts
30/11:30pm 9.1 5.2 7.2 88 0.9 NNE 17 26 9 14 1013.0 1013.9 1.4
30/11:00pm 9.2 5.8 7.6 90 0.8 NNE 15 19 8 10 1013.2 1014.1 1.4
30/10:30pm 8.6 5.9 7.5 93 0.5 NNE 11 15 6 8 1013.7 1014.6 1.4
30/10:00pm 8.6 6.8 7.8 95 0.4 NE 7 9 4 5 1014.3 1015.3 1.4
30/09:30pm 8.7 6.9 7.9 95 0.4 NNE 7 9 4 5 1014.8 1015.7 1.2
30/09:00pm 8.7 6.9 7.9 95 0.4 NNE 7 9 4 5 1015.0 1015.9 1.0
30/08:30pm 8.9 6.4 8.1 95 0.4 NNE 11 15 6 8 1015.2 1016.1 1.0
30/08:00pm 9.1 6.6 8.3 95 0.4 NE 11 17 6 9 1015.7 1016.6 1.0
30/07:30pm 9.1 6.6 8.2 94 0.4 ENE 11 20 6 11 1015.9 1016.9 1.0
30/07:00pm 9.0 6.1 8.2 95 0.4 NE 13 17 7 9 1016.3 1017.3 1.0
30/06:30pm 9.4 6.9 8.3 93 0.5 NE 11 17 6 9 1016.1 1017.1 1.0
30/06:00pm 9.2 6.0 8.3 94 0.4 ENE 15 22 8 12 1016.7 1017.7 1.0
30/05:30pm 9.5 6.6 8.1 91 0.7 ENE 13 20 7 11 1017.3 1018.2 0.6
30/05:00pm 9.4 6.5 8.0 91 0.7 NE 13 20 7 11 1017.6 1018.5 0.6
30/04:30pm 9.6 6.1 7.4 86 1.1 ENE 15 20 8 11 1017.8 1018.8 0.4
30/04:00pm 9.6 6.1 7.0 84 1.3 E 15 22 8 12 1017.7 1018.6 0.4
30/03:30pm 10.2 7.8 6.9 80 1.6 NE 9 13 5 7 1018.4 1019.4 0.4
30/03:00pm 10.3 7.4 4.9 69 2.5 ENE 9 13 5 7 1018.7 1019.7 0.4
30/02:30pm 10.7 6.8 5.3 69 2.5 N 15 20 8 11 1019.3 1020.2 0.0
30/02:00pm 11.5 7.4 4.3 61 3.3 N 15 19 8 10 1019.4 1020.3 0.0
30/01:30pm 12.3 7.5 4.8 60 3.5 NNW 19 24 10 13 1019.1 1020.1 0.0
30/01:00pm 12.6 7.5 4.1 56 3.9 N 20 28 11 15 1019.5 1020.4 0.0
30/12:30pm 11.8 6.1 4.8 62 3.3 N 24 30 13 16 1020.3 1021.3 0.0
30/12:00pm 12.6 7.1 5.8 63 3.3 N 24 30 13 16 1020.8 1021.8 0.0
30/11:30am 12.2 7.3 5.1 62 3.4 N 20 33 11 18 1021.2 1022.2 0.0
30/11:00am 10.7 6.1 5.5 70 2.4 N 19 26 10 14 1022.0 1023.0 0.0
30/10:30am 10.6 6.3 5.2 69 2.5 NNW 17 22 9 12 1022.1 1023.1 0.0
30/10:00am 10.3 6.1 5.5 72 2.2 N 17 24 9 13 1022.5 1023.5 0.0
30/09:30am 9.2 5.9 4.6 73 2.1 NNE 11 13 6 7 1022.8 1023.8 0.0
30/09:00am 7.9 4.9 4.1 77 1.7 NNE 9 15 5 8 1023.1 1024.1 0.0
30/08:30am 6.5 4.0 3.7 82 1.2 NE 6 7 3 4 1023.0 1024.0 0.0
30/08:00am 4.8 2.9 2.8 87 0.8 E 2 7 1 4 1023.3 1024.4 0.0
30/07:30am 2.6 -0.4 1.1 90 0.6 NE 6 9 3 5 1023.2 1024.3 0.0
30/07:00am 4.2 0.5 2.6 89 0.7 N 11 17 6 9 1023.2 1024.3 0.0
30/06:30am 2.1 -1.5 0.6 90 0.6 NE 9 13 5 7 1023.4 1024.5 0.0
30/06:00am 0.2 -3.7 -1.2 90 0.5 NNE 9 13 5 7 1023.4 1024.5 0.0
30/05:30am -0.3 -3.8 -1.0 95 0.2 NE 7 11 4 6 1022.9 1023.9 0.0
30/05:00am -0.1 -3.5 -0.7 96 0.2 ENE 7 9 4 5 1022.8 1023.8 0.0
30/04:30am 0.0 -3.4 -0.6 96 0.2 NE 7 9 4 5 1022.6 1023.6 0.0
30/04:00am -0.1 -3.3 -0.8 95 0.2 E 6 7 3 4 1022.3 1023.3 0.0
30/03:30am -0.6 -4.1 -1.4 94 0.3 E 7 9 4 5 1022.2 1023.2 0.0
30/03:00am -0.5 -4.0 -1.2 95 0.2 E 7 9 4 5 1022.4 1023.4 0.0
30/02:30am -0.2 -3.6 -0.9 95 0.2 ESE 7 7 4 4 1022.7 1023.7 0.0
30/02:00am -0.1 -3.5 -0.9 94 0.3 E 7 7 4 4 1023.1 1024.1 0.0
30/01:30am -0.6 -4.5 -1.2 96 0.2 ESE 9 9 5 5 1024.0 1025.0 0.0
30/01:00am -0.2 -3.1 -0.8 96 0.2 ENE 4 7 2 4 1024.4 1025.4 0.0
30/12:30am -0.4 -2.5 -1.0 96 0.2 CALM 0 0 0 0 1024.3 1025.3 0.0
30/12:00am 0.1 -2.3 -0.5 96 0.2 E 2 7 1 4 1024.3 1025.3 0.0
 
Date/Time
EST
Temp
°C
App
Temp
°C
Dew
Point
°C
Rel
Hum
%
Delta-T
°C
Wind Press
QNH
hPa
Press
MSL
hPa
Rain since
9am
mm
Dir  Spd
km/h
Gust
km/h
Spd
kts
Gust
kts
29/11:30pm 0.7 -2.4 0.1 96 0.2 N 6 6 3 3 1024.2 1025.2 0.0
29/11:00pm 0.5 -2.7 -0.4 94 0.3 NE 6 7 3 4 1024.1 1025.1 0.0
29/10:30pm 1.5 -1.7 0.9 96 0.2 NNE 7 9 4 5 1024.0 1025.0 0.0
29/10:00pm 1.2 -1.8 0.5 95 0.3 ENE 6 7 3 4 1023.9 1024.9 0.0
29/09:30pm 1.1 -2.0 0.2 94 0.3 E 6 7 3 4 1024.2 1025.2 0.0
29/09:00pm 1.7 -1.3 0.7 93 0.4 ENE 6 7 3 4 1024.2 1025.2 0.0
29/08:30pm 2.2 -0.8 1.0 92 0.5 NE 6 7 3 4 1024.3 1025.3 0.0
29/08:00pm 2.4 -0.6 1.1 91 0.5 ENE 6 7 3 4 1024.1 1025.1 0.0
29/07:30pm 3.1 0.2 1.2 87 0.8 ENE 6 7 3 4 1024.1 1025.1 0.0
29/07:00pm 4.8 1.8 2.0 82 1.1 N 7 9 4 5 1023.9 1024.9 0.0
29/06:30pm 5.6 4.0 2.3 79 1.4 CALM 0 4 0 2 1023.4 1024.5 0.0
29/06:00pm 6.8 4.8 2.5 74 1.8 NW 2 7 1 4 1023.3 1024.4 0.0
29/05:30pm 8.8 6.2 3.0 67 2.5 WNW 6 7 3 4 1022.9 1023.9 0.0
29/05:00pm 9.5 6.6 2.8 63 2.9 N 7 9 4 5 1022.6 1023.6 0.0
29/04:30pm 10.6 9.0 2.2 56 3.7 CALM 0 0 0 0 1022.2 1023.2 0.0
29/04:00pm 10.9 7.7 0.9 50 4.2 NW 7 9 4 5 1022.1 1023.1 0.0
29/03:30pm 11.9 8.8 1.5 49 4.5 NNW 7 11 4 6 1022.1 1023.1 0.0
29/03:00pm 11.2 8.0 0.9 49 4.4 NNE 7 11 4 6 1022.1 1023.1 0.0
29/02:30pm 11.4 8.3 1.6 51 4.3 NNE 7 11 4 6 1021.9 1022.9 0.0
29/02:00pm 10.5 7.1 1.9 55 3.7 N 9 13 5 7 1021.9 1022.9 0.0
29/01:30pm 10.7 7.7 1.8 54 3.9 NW 7 11 4 6 1022.0 1023.0 0.0
29/01:00pm 9.9 6.0 1.0 54 3.7 NNW 11 15 6 8 1022.2 1023.2 0.0
29/12:30pm 9.6 6.1 1.0 55 3.6 NNE 9 17 5 9 1022.3 1023.3 0.0
29/12:00pm 9.9 6.3 0.8 53 3.8 NNW 9 13 5 7 1022.7 1023.7 0.0
29/11:30am 9.0 5.5 1.0 57 3.4 WNW 9 13 5 7 1022.9 1023.9 0.0
29/11:00am 8.2 4.7 1.1 61 2.9 NNW 9 13 5 7 1022.9 1023.9 0.0
29/10:30am 7.0 3.8 0.7 64 2.6 NW 7 11 4 6 1023.1 1024.1 0.0
29/10:00am 5.9 2.2 -0.2 65 2.4 WNW 9 13 5 7 1023.3 1024.4 0.0
29/09:30am 5.4 1.9 1.1 74 1.7 WNW 9 13 5 7 1023.5 1024.6 0.0
29/09:00am 4.1 0.0 0.1 75 1.5 NW 11 17 6 9 1023.6 1024.7 0.2
29/08:30am 2.1 -0.4 -0.8 81 1.1 E 2 6 1 3 1023.2 1024.3 0.2
29/08:00am 0.1 -2.5 -1.5 89 0.6 E 2 7 1 4 1023.1 1024.1 0.2
29/07:30am -1.5 -5.0 -2.8 91 0.4 ESE 6 7 3 4 1023.0 1024.0 0.2
29/07:00am -2.1 -4.5 -3.1 93 0.2 CALM 0 9 0 5 1022.6 1023.6 0.2
29/06:30am -2.5 -5.7 -3.6 92 0.3 ESE 4 9 2 5 1022.1 1023.1 0.2
29/06:00am -2.2 -4.6 -3.2 93 0.2 CALM 0 0 0 0 1022.2 1023.2 0.2
29/05:30am -1.5 -5.6 -2.8 91 0.4 WNW 9 11 5 6 1021.9 1022.9 0.2
29/05:00am -1.3 -4.0 -2.6 91 0.4 ESE 2 6 1 3 1021.6 1022.6 0.2
29/04:30am -1.0 -5.0 -2.1 92 0.3 W 9 11 5 6 1021.3 1022.4 0.2
29/04:00am -1.4 -3.8 -2.8 90 0.4 CALM 0 6 0 3 1021.2 1022.2 0.2
29/03:30am -1.6 -4.4 -3.2 89 0.5 SSE 2 6 1 3 1021.1 1022.1 0.2
29/03:00am -0.9 -4.6 -3.1 85 0.7 SW 7 9 4 5 1021.0 1022.0 0.2
29/02:30am 0.5 -3.5 -1.9 84 0.9 WNW 9 17 5 9 1020.9 1021.9 0.2
29/02:00am 0.1 -3.5 -1.8 87 0.7 W 7 11 4 6 1020.6 1021.6 0.2
29/01:30am -1.2 -3.5 -2.5 91 0.4 CALM 0 6 0 3 1020.6 1021.6 0.2
29/01:00am -1.4 -4.9 -3.0 89 0.5 WSW 6 7 3 4 1020.6 1021.6 0.2
29/12:30am 0.6 -3.4 -2.1 82 1.0 WNW 9 11 5 6 1020.3 1021.3 0.2
29/12:00am 0.7 -3.2 -1.8 83 0.9 W 9 11 5 6 1020.3 1021.3 0.2
 
Date/Time
EST
Temp
°C
App
Temp
°C
Dew
Point
°C
Rel
Hum
%
Delta-T
°C
Wind Press
QNH
hPa
Press
MSL
hPa
Rain since
9am
mm
Dir  Spd
km/h
Gust
km/h
Spd
kts
Gust
kts
28/11:30pm 1.0 -4.4 -1.7 82 1.0 WNW 17 19 9 10 1020.2 1021.2 0.2
28/11:00pm 0.6 -3.3 -1.8 84 0.9 WNW 9 13 5 7 1020.0 1021.0 0.2
28/10:30pm 1.3 -2.6 -1.8 80 1.1 W 9 11 5 6 1020.0 1021.0 0.2
28/10:00pm 1.9 -2.4 -1.5 78 1.2 W 11 15 6 8 1019.8 1020.8 0.2
28/09:30pm 1.0 -3.0 -1.9 81 1.1 SW 9 11 5 6 1019.5 1020.4 0.2
28/09:00pm 2.0 -2.2 -1.2 79 1.2 W 11 15 6 8 1019.3 1020.2 0.2
28/08:30pm 1.9 -2.3 -1.0 81 1.1 W 11 15 6 8 1018.8 1019.8 0.2
28/08:00pm 2.6 -1.6 -0.7 79 1.2 W 11 15 6 8 1018.4 1019.4 0.2
28/07:30pm 3.0 -1.5 -0.5 78 1.3 W 13 15 7 8 1018.3 1019.3 0.2
28/07:00pm 2.8 -0.6 -0.5 79 1.2 W 7 11 4 6 1018.1 1019.1 0.2
28/06:30pm 3.5 -0.6 -0.1 77 1.4 WNW 11 17 6 9 1017.9 1018.9 0.2
28/06:00pm 3.9 -0.2 -0.1 75 1.5 WNW 11 17 6 9 1017.5 1018.4 0.2
28/05:30pm 5.6 0.0 -0.2 66 2.3 W 19 28 10 15 1016.8 1017.8 0.2
28/05:00pm 6.3 1.5 0.0 64 2.5 W 15 24 8 13 1016.4 1017.4 0.2
28/04:30pm 6.5 0.6 -0.9 59 2.9 W 20 30 11 16 1016.1 1017.1 0.2

Other Formats:

Comma delimited format used in spreadsheet applications
http://www.bom.gov.au/fwo/IDT60801/IDT60801.94960.axf

JavaScript Object Notation format (JSON) in row-major order
http://www.bom.gov.au/fwo/IDT60801/IDT60801.94960.json